sensor_id;sensor_type;location;lat;lon;timestamp;temperature;humidity
10384;DHT22;5238;43.508;4.980;2022-07-29T00:02:22;26.00;91.30
10384;DHT22;5238;43.508;4.980;2022-07-29T00:04:49;26.00;91.30
10384;DHT22;5238;43.508;4.980;2022-07-29T00:07:18;26.00;91.30
10384;DHT22;5238;43.508;4.980;2022-07-29T00:09:45;26.00;91.30
10384;DHT22;5238;43.508;4.980;2022-07-29T00:12:12;26.00;91.30
10384;DHT22;5238;43.508;4.980;2022-07-29T00:14:39;25.90;91.30
10384;DHT22;5238;43.508;4.980;2022-07-29T00:17:06;25.90;91.30
10384;DHT22;5238;43.508;4.980;2022-07-29T00:19:34;25.90;91.30
10384;DHT22;5238;43.508;4.980;2022-07-29T00:22:02;25.90;91.30
10384;DHT22;5238;43.508;4.980;2022-07-29T00:24:31;25.80;91.30
10384;DHT22;5238;43.508;4.980;2022-07-29T00:26:58;25.80;91.30
10384;DHT22;5238;43.508;4.980;2022-07-29T00:36:09;25.80;91.30
10384;DHT22;5238;43.508;4.980;2022-07-29T00:38:36;25.80;91.30
10384;DHT22;5238;43.508;4.980;2022-07-29T00:41:05;25.70;91.30
10384;DHT22;5238;43.508;4.980;2022-07-29T00:43:32;25.70;91.30
10384;DHT22;5238;43.508;4.980;2022-07-29T00:46:00;25.70;91.30
10384;DHT22;5238;43.508;4.980;2022-07-29T00:48:27;25.70;91.30
10384;DHT22;5238;43.508;4.980;2022-07-29T00:50:55;25.70;91.30
10384;DHT22;5238;43.508;4.980;2022-07-29T00:53:24;25.70;91.30
10384;DHT22;5238;43.508;4.980;2022-07-29T00:55:52;25.70;91.30
10384;DHT22;5238;43.508;4.980;2022-07-29T00:58:23;25.60;91.30
10384;DHT22;5238;43.508;4.980;2022-07-29T01:00:50;25.60;91.30
10384;DHT22;5238;43.508;4.980;2022-07-29T01:03:18;25.50;91.30
10384;DHT22;5238;43.508;4.980;2022-07-29T01:05:46;25.50;91.30
10384;DHT22;5238;43.508;4.980;2022-07-29T01:08:14;25.50;91.30
10384;DHT22;5238;43.508;4.980;2022-07-29T01:10:44;25.60;91.30
10384;DHT22;5238;43.508;4.980;2022-07-29T01:13:14;25.50;91.30
10384;DHT22;5238;43.508;4.980;2022-07-29T01:15:54;25.50;91.30
10384;DHT22;5238;43.508;4.980;2022-07-29T01:18:30;25.50;91.30
10384;DHT22;5238;43.508;4.980;2022-07-29T01:21:24;25.50;91.30
10384;DHT22;5238;43.508;4.980;2022-07-29T01:27:32;25.50;91.30
10384;DHT22;5238;43.508;4.980;2022-07-29T01:30:06;25.50;91.30
10384;DHT22;5238;43.508;4.980;2022-07-29T01:32:37;25.50;91.30
10384;DHT22;5238;43.508;4.980;2022-07-29T01:35:10;25.60;91.30
10384;DHT22;5238;43.508;4.980;2022-07-29T01:37:45;25.50;91.30
10384;DHT22;5238;43.508;4.980;2022-07-29T01:40:25;25.50;91.30
10384;DHT22;5238;43.508;4.980;2022-07-29T01:42:56;25.50;91.30
10384;DHT22;5238;43.508;4.980;2022-07-29T01:45:30;25.50;91.30
10384;DHT22;5238;43.508;4.980;2022-07-29T01:48:05;25.50;91.30
10384;DHT22;5238;43.508;4.980;2022-07-29T01:50:35;25.50;91.30
10384;DHT22;5238;43.508;4.980;2022-07-29T01:53:06;25.50;91.30
10384;DHT22;5238;43.508;4.980;2022-07-29T01:55:40;25.50;91.30
10384;DHT22;5238;43.508;4.980;2022-07-29T01:58:08;25.50;91.30
10384;DHT22;5238;43.508;4.980;2022-07-29T02:00:39;25.50;91.30
10384;DHT22;5238;43.508;4.980;2022-07-29T02:03:11;25.50;91.30
10384;DHT22;5238;43.508;4.980;2022-07-29T02:05:41;25.50;91.30
10384;DHT22;5238;43.508;4.980;2022-07-29T02:08:10;25.50;91.30
10384;DHT22;5238;43.508;4.980;2022-07-29T02:10:38;25.50;91.30
10384;DHT22;5238;43.508;4.980;2022-07-29T02:13:07;25.40;91.30
10384;DHT22;5238;43.508;4.980;2022-07-29T02:15:42;25.40;91.30
10384;DHT22;5238;43.508;4.980;2022-07-29T02:18:14;25.40;91.30
10384;DHT22;5238;43.508;4.980;2022-07-29T02:20:45;25.40;91.30
10384;DHT22;5238;43.508;4.980;2022-07-29T02:23:15;25.40;91.30
10384;DHT22;5238;43.508;4.980;2022-07-29T02:25:46;25.40;91.30
10384;DHT22;5238;43.508;4.980;2022-07-29T02:28:15;25.40;91.30
10384;DHT22;5238;43.508;4.980;2022-07-29T02:30:45;25.40;91.30
10384;DHT22;5238;43.508;4.980;2022-07-29T02:33:15;25.30;91.30
10384;DHT22;5238;43.508;4.980;2022-07-29T02:35:46;25.30;91.30
10384;DHT22;5238;43.508;4.980;2022-07-29T02:38:15;25.30;91.30
10384;DHT22;5238;43.508;4.980;2022-07-29T02:41:03;25.30;91.30
10384;DHT22;5238;43.508;4.980;2022-07-29T02:43:31;25.30;91.30
10384;DHT22;5238;43.508;4.980;2022-07-29T02:46:03;25.30;91.30
10384;DHT22;5238;43.508;4.980;2022-07-29T02:48:36;25.20;91.30
10384;DHT22;5238;43.508;4.980;2022-07-29T02:51:07;25.20;91.30
10384;DHT22;5238;43.508;4.980;2022-07-29T02:53:35;25.20;91.30
10384;DHT22;5238;43.508;4.980;2022-07-29T02:56:07;25.20;91.30
10384;DHT22;5238;43.508;4.980;2022-07-29T02:58:38;25.20;91.30
10384;DHT22;5238;43.508;4.980;2022-07-29T03:01:13;25.20;91.30
10384;DHT22;5238;43.508;4.980;2022-07-29T03:03:44;25.20;91.30
10384;DHT22;5238;43.508;4.980;2022-07-29T03:06:13;25.20;91.30
10384;DHT22;5238;43.508;4.980;2022-07-29T03:08:42;25.20;91.30
10384;DHT22;5238;43.508;4.980;2022-07-29T03:11:11;25.20;91.30
10384;DHT22;5238;43.508;4.980;2022-07-29T03:13:39;25.20;91.30
10384;DHT22;5238;43.508;4.980;2022-07-29T03:16:07;25.20;91.30
10384;DHT22;5238;43.508;4.980;2022-07-29T03:18:37;25.20;91.30
10384;DHT22;5238;43.508;4.980;2022-07-29T03:21:06;25.20;91.30
10384;DHT22;5238;43.508;4.980;2022-07-29T03:23:33;25.10;91.30
10384;DHT22;5238;43.508;4.980;2022-07-29T03:26:00;25.10;91.30
10384;DHT22;5238;43.508;4.980;2022-07-29T03:28:27;25.10;91.30
10384;DHT22;5238;43.508;4.980;2022-07-29T03:30:54;25.10;91.30
10384;DHT22;5238;43.508;4.980;2022-07-29T03:33:21;25.10;91.30
10384;DHT22;5238;43.508;4.980;2022-07-29T03:35:50;25.10;91.30
10384;DHT22;5238;43.508;4.980;2022-07-29T03:38:17;25.10;91.30
10384;DHT22;5238;43.508;4.980;2022-07-29T03:40:48;25.10;91.30
10384;DHT22;5238;43.508;4.980;2022-07-29T03:43:17;25.10;91.30
10384;DHT22;5238;43.508;4.980;2022-07-29T03:45:49;25.10;91.30
10384;DHT22;5238;43.508;4.980;2022-07-29T03:48:22;25.10;91.30
10384;DHT22;5238;43.508;4.980;2022-07-29T03:50:53;25.10;91.30
10384;DHT22;5238;43.508;4.980;2022-07-29T03:53:21;25.10;91.30
10384;DHT22;5238;43.508;4.980;2022-07-29T03:55:53;25.10;91.30
10384;DHT22;5238;43.508;4.980;2022-07-29T03:58:22;25.10;91.30
10384;DHT22;5238;43.508;4.980;2022-07-29T04:00:50;25.10;91.30
10384;DHT22;5238;43.508;4.980;2022-07-29T04:03:17;25.10;91.30
10384;DHT22;5238;43.508;4.980;2022-07-29T04:05:44;25.10;91.30
10384;DHT22;5238;43.508;4.980;2022-07-29T04:08:12;25.10;91.30
10384;DHT22;5238;43.508;4.980;2022-07-29T04:10:40;25.10;91.30
10384;DHT22;5238;43.508;4.980;2022-07-29T04:13:07;25.00;91.30
10384;DHT22;5238;43.508;4.980;2022-07-29T04:15:34;25.00;91.30
10384;DHT22;5238;43.508;4.980;2022-07-29T04:18:03;25.00;91.30
10384;DHT22;5238;43.508;4.980;2022-07-29T04:20:31;25.00;91.30
10384;DHT22;5238;43.508;4.980;2022-07-29T04:22:58;24.90;91.30
10384;DHT22;5238;43.508;4.980;2022-07-29T04:25:26;24.90;91.30
10384;DHT22;5238;43.508;4.980;2022-07-29T04:27:53;24.80;91.30
10384;DHT22;5238;43.508;4.980;2022-07-29T04:30:30;24.80;91.30
10384;DHT22;5238;43.508;4.980;2022-07-29T04:32:57;24.80;91.30
10384;DHT22;5238;43.508;4.980;2022-07-29T04:35:27;24.80;91.30
10384;DHT22;5238;43.508;4.980;2022-07-29T04:37:55;24.70;91.30
10384;DHT22;5238;43.508;4.980;2022-07-29T04:40:22;24.70;91.30
10384;DHT22;5238;43.508;4.980;2022-07-29T04:42:51;24.70;91.30
10384;DHT22;5238;43.508;4.980;2022-07-29T04:45:18;24.70;91.30
10384;DHT22;5238;43.508;4.980;2022-07-29T04:47:46;24.70;91.30
10384;DHT22;5238;43.508;4.980;2022-07-29T04:50:13;24.60;91.30
10384;DHT22;5238;43.508;4.980;2022-07-29T04:52:40;24.60;91.30
10384;DHT22;5238;43.508;4.980;2022-07-29T04:55:08;24.60;91.30
10384;DHT22;5238;43.508;4.980;2022-07-29T04:57:36;24.50;91.30
10384;DHT22;5238;43.508;4.980;2022-07-29T05:00:06;24.50;91.30
10384;DHT22;5238;43.508;4.980;2022-07-29T05:02:33;24.50;91.30
10384;DHT22;5238;43.508;4.980;2022-07-29T05:05:00;24.50;91.30
10384;DHT22;5238;43.508;4.980;2022-07-29T05:07:27;24.50;91.30
10384;DHT22;5238;43.508;4.980;2022-07-29T05:09:54;24.60;91.30
10384;DHT22;5238;43.508;4.980;2022-07-29T05:12:22;24.70;91.30
10384;DHT22;5238;43.508;4.980;2022-07-29T05:14:49;24.70;91.30
10384;DHT22;5238;43.508;4.980;2022-07-29T05:17:17;24.70;91.30
10384;DHT22;5238;43.508;4.980;2022-07-29T05:19:44;24.80;91.30
10384;DHT22;5238;43.508;4.980;2022-07-29T05:22:11;24.90;91.30
10384;DHT22;5238;43.508;4.980;2022-07-29T05:24:38;24.90;91.30
10384;DHT22;5238;43.508;4.980;2022-07-29T05:27:09;24.90;91.30
10384;DHT22;5238;43.508;4.980;2022-07-29T05:29:36;25.00;91.30
10384;DHT22;5238;43.508;4.980;2022-07-29T05:32:04;25.00;91.30
10384;DHT22;5238;43.508;4.980;2022-07-29T05:34:32;25.00;91.30
10384;DHT22;5238;43.508;4.980;2022-07-29T05:37:00;25.10;91.30
10384;DHT22;5238;43.508;4.980;2022-07-29T05:39:27;25.10;91.30
10384;DHT22;5238;43.508;4.980;2022-07-29T05:41:54;25.10;91.30
10384;DHT22;5238;43.508;4.980;2022-07-29T05:44:21;25.20;91.30
10384;DHT22;5238;43.508;4.980;2022-07-29T05:46:48;25.30;91.30
10384;DHT22;5238;43.508;4.980;2022-07-29T05:49:15;25.30;91.30
10384;DHT22;5238;43.508;4.980;2022-07-29T05:51:43;25.30;91.30
10384;DHT22;5238;43.508;4.980;2022-07-29T05:54:10;25.40;91.30
10384;DHT22;5238;43.508;4.980;2022-07-29T05:56:37;25.40;91.30
10384;DHT22;5238;43.508;4.980;2022-07-29T05:59:04;25.50;91.30
10384;DHT22;5238;43.508;4.980;2022-07-29T06:01:31;25.50;91.30
10384;DHT22;5238;43.508;4.980;2022-07-29T06:03:58;25.60;91.30
10384;DHT22;5238;43.508;4.980;2022-07-29T06:06:25;25.70;91.30
10384;DHT22;5238;43.508;4.980;2022-07-29T06:08:54;25.70;91.30
10384;DHT22;5238;43.508;4.980;2022-07-29T06:11:20;25.70;91.30
10384;DHT22;5238;43.508;4.980;2022-07-29T06:13:47;25.80;91.30
10384;DHT22;5238;43.508;4.980;2022-07-29T06:16:14;25.70;91.30
10384;DHT22;5238;43.508;4.980;2022-07-29T06:18:41;25.80;91.30
10384;DHT22;5238;43.508;4.980;2022-07-29T06:21:09;25.80;91.30
10384;DHT22;5238;43.508;4.980;2022-07-29T06:23:36;25.80;91.30
10384;DHT22;5238;43.508;4.980;2022-07-29T06:26:05;25.80;91.30
10384;DHT22;5238;43.508;4.980;2022-07-29T06:28:32;25.70;91.30
10384;DHT22;5238;43.508;4.980;2022-07-29T06:31:00;25.70;91.30
10384;DHT22;5238;43.508;4.980;2022-07-29T06:33:27;25.70;91.30
10384;DHT22;5238;43.508;4.980;2022-07-29T06:35:54;25.70;91.30
10384;DHT22;5238;43.508;4.980;2022-07-29T06:38:21;25.70;91.30
10384;DHT22;5238;43.508;4.980;2022-07-29T06:40:48;25.70;91.30
10384;DHT22;5238;43.508;4.980;2022-07-29T06:43:30;25.80;91.30
10384;DHT22;5238;43.508;4.980;2022-07-29T06:46:00;25.80;91.30
10384;DHT22;5238;43.508;4.980;2022-07-29T06:48:27;25.80;91.30
10384;DHT22;5238;43.508;4.980;2022-07-29T06:50:55;25.90;91.30
10384;DHT22;5238;43.508;4.980;2022-07-29T06:53:22;25.90;91.30
10384;DHT22;5238;43.508;4.980;2022-07-29T06:55:50;25.90;91.30
10384;DHT22;5238;43.508;4.980;2022-07-29T06:58:17;25.90;91.30
10384;DHT22;5238;43.508;4.980;2022-07-29T07:00:47;25.90;91.30
10384;DHT22;5238;43.508;4.980;2022-07-29T07:03:15;25.90;91.30
10384;DHT22;5238;43.508;4.980;2022-07-29T07:05:42;25.90;91.30
10384;DHT22;5238;43.508;4.980;2022-07-29T07:08:10;25.80;91.30
10384;DHT22;5238;43.508;4.980;2022-07-29T07:10:37;25.80;91.30
10384;DHT22;5238;43.508;4.980;2022-07-29T07:13:23;25.70;91.30
10384;DHT22;5238;43.508;4.980;2022-07-29T07:15:57;25.70;91.30
10384;DHT22;5238;43.508;4.980;2022-07-29T07:18:24;25.60;91.30
10384;DHT22;5238;43.508;4.980;2022-07-29T07:20:51;25.60;91.30
10384;DHT22;5238;43.508;4.980;2022-07-29T07:23:21;25.70;91.30
10384;DHT22;5238;43.508;4.980;2022-07-29T07:25:47;25.70;91.30
10384;DHT22;5238;43.508;4.980;2022-07-29T07:28:14;25.70;91.30
10384;DHT22;5238;43.508;4.980;2022-07-29T07:30:41;25.80;91.30
10384;DHT22;5238;43.508;4.980;2022-07-29T07:33:12;25.90;91.30
10384;DHT22;5238;43.508;4.980;2022-07-29T07:35:39;26.00;91.30
10384;DHT22;5238;43.508;4.980;2022-07-29T07:41:59;26.40;91.30
10384;DHT22;5238;43.508;4.980;2022-07-29T07:44:26;26.60;91.30
10384;DHT22;5238;43.508;4.980;2022-07-29T07:46:53;26.90;91.30
10384;DHT22;5238;43.508;4.980;2022-07-29T07:49:21;27.20;91.30
10384;DHT22;5238;43.508;4.980;2022-07-29T07:51:48;27.50;91.30
10384;DHT22;5238;43.508;4.980;2022-07-29T07:54:15;27.80;91.30
10384;DHT22;5238;43.508;4.980;2022-07-29T07:56:42;27.90;91.30
10384;DHT22;5238;43.508;4.980;2022-07-29T07:59:09;28.00;91.30
10384;DHT22;5238;43.508;4.980;2022-07-29T08:01:36;28.10;91.30
10384;DHT22;5238;43.508;4.980;2022-07-29T08:04:04;28.30;91.30
10384;DHT22;5238;43.508;4.980;2022-07-29T08:06:33;28.40;91.30
10384;DHT22;5238;43.508;4.980;2022-07-29T08:09:00;28.60;91.30
10384;DHT22;5238;43.508;4.980;2022-07-29T08:11:27;28.80;91.30
10384;DHT22;5238;43.508;4.980;2022-07-29T08:13:54;29.30;91.30
10384;DHT22;5238;43.508;4.980;2022-07-29T08:16:21;29.50;91.30
10384;DHT22;5238;43.508;4.980;2022-07-29T08:18:51;29.70;91.30
10384;DHT22;5238;43.508;4.980;2022-07-29T08:21:23;29.70;91.30
10384;DHT22;5238;43.508;4.980;2022-07-29T08:23:52;29.80;91.30
10384;DHT22;5238;43.508;4.980;2022-07-29T08:26:40;29.80;91.30
10384;DHT22;5238;43.508;4.980;2022-07-29T08:29:07;29.90;91.30
10384;DHT22;5238;43.508;4.980;2022-07-29T08:31:34;29.90;91.30
10384;DHT22;5238;43.508;4.980;2022-07-29T08:34:01;29.80;91.30
10384;DHT22;5238;43.508;4.980;2022-07-29T08:36:29;29.70;91.30
10384;DHT22;5238;43.508;4.980;2022-07-29T08:38:57;29.70;91.30
10384;DHT22;5238;43.508;4.980;2022-07-29T08:41:26;29.60;91.30
10384;DHT22;5238;43.508;4.980;2022-07-29T08:43:53;29.50;91.30
10384;DHT22;5238;43.508;4.980;2022-07-29T08:46:21;29.50;91.30
10384;DHT22;5238;43.508;4.980;2022-07-29T08:48:49;29.50;91.30
10384;DHT22;5238;43.508;4.980;2022-07-29T08:51:17;29.50;91.30
10384;DHT22;5238;43.508;4.980;2022-07-29T08:53:47;29.50;91.30
10384;DHT22;5238;43.508;4.980;2022-07-29T08:56:18;29.50;91.30
10384;DHT22;5238;43.508;4.980;2022-07-29T08:58:58;29.50;91.30
10384;DHT22;5238;43.508;4.980;2022-07-29T09:01:29;29.50;91.30
10384;DHT22;5238;43.508;4.980;2022-07-29T09:04:29;29.50;91.30
10384;DHT22;5238;43.508;4.980;2022-07-29T09:07:15;29.60;91.30
10384;DHT22;5238;43.508;4.980;2022-07-29T09:09:45;29.70;91.30
10384;DHT22;5238;43.508;4.980;2022-07-29T09:12:14;29.80;91.30
10384;DHT22;5238;43.508;4.980;2022-07-29T09:14:47;29.90;91.30
10384;DHT22;5238;43.508;4.980;2022-07-29T09:17:14;29.90;91.30
10384;DHT22;5238;43.508;4.980;2022-07-29T09:19:44;29.90;91.30
10384;DHT22;5238;43.508;4.980;2022-07-29T09:22:11;29.90;91.30
10384;DHT22;5238;43.508;4.980;2022-07-29T09:24:40;29.90;91.30
10384;DHT22;5238;43.508;4.980;2022-07-29T09:27:20;29.90;91.30
10384;DHT22;5238;43.508;4.980;2022-07-29T09:29:55;29.90;91.30
10384;DHT22;5238;43.508;4.980;2022-07-29T09:32:23;30.00;91.30
10384;DHT22;5238;43.508;4.980;2022-07-29T09:34:50;30.00;91.30
10384;DHT22;5238;43.508;4.980;2022-07-29T09:37:26;30.00;91.30
10384;DHT22;5238;43.508;4.980;2022-07-29T09:39:54;30.10;91.30
10384;DHT22;5238;43.508;4.980;2022-07-29T09:42:29;30.50;91.30
10384;DHT22;5238;43.508;4.980;2022-07-29T09:44:59;30.80;91.30
10384;DHT22;5238;43.508;4.980;2022-07-29T09:47:40;31.10;91.30
10384;DHT22;5238;43.508;4.980;2022-07-29T09:50:12;31.60;91.30
10384;DHT22;5238;43.508;4.980;2022-07-29T09:52:46;32.00;91.30
10384;DHT22;5238;43.508;4.980;2022-07-29T09:55:13;32.20;91.30
10384;DHT22;5238;43.508;4.980;2022-07-29T09:57:42;32.30;91.30
10384;DHT22;5238;43.508;4.980;2022-07-29T10:00:20;32.50;91.30
10384;DHT22;5238;43.508;4.980;2022-07-29T10:02:51;32.60;91.30
10384;DHT22;5238;43.508;4.980;2022-07-29T10:05:21;32.60;91.30
10384;DHT22;5238;43.508;4.980;2022-07-29T10:07:50;32.60;91.30
10384;DHT22;5238;43.508;4.980;2022-07-29T10:10:22;32.70;91.30
10384;DHT22;5238;43.508;4.980;2022-07-29T10:12:53;32.70;91.30
10384;DHT22;5238;43.508;4.980;2022-07-29T10:15:22;32.90;91.30
10384;DHT22;5238;43.508;4.980;2022-07-29T10:17:50;33.10;91.30
10384;DHT22;5238;43.508;4.980;2022-07-29T10:20:18;33.20;91.30
10384;DHT22;5238;43.508;4.980;2022-07-29T10:22:47;33.20;91.30
10384;DHT22;5238;43.508;4.980;2022-07-29T10:25:15;33.20;91.30
10384;DHT22;5238;43.508;4.980;2022-07-29T10:27:42;33.40;91.30
10384;DHT22;5238;43.508;4.980;2022-07-29T10:30:12;33.70;91.30
10384;DHT22;5238;43.508;4.980;2022-07-29T10:33:05;33.90;91.30
10384;DHT22;5238;43.508;4.980;2022-07-29T10:35:47;34.00;91.30
10384;DHT22;5238;43.508;4.980;2022-07-29T10:38:45;34.20;91.30
10384;DHT22;5238;43.508;4.980;2022-07-29T10:41:43;34.30;91.30
10384;DHT22;5238;43.508;4.980;2022-07-29T10:44:16;34.20;91.30
10384;DHT22;5238;43.508;4.980;2022-07-29T10:46:45;34.00;91.30
10384;DHT22;5238;43.508;4.980;2022-07-29T10:49:16;33.80;91.30
10384;DHT22;5238;43.508;4.980;2022-07-29T10:52:01;33.70;91.30
10384;DHT22;5238;43.508;4.980;2022-07-29T10:58:13;33.40;91.30
10384;DHT22;5238;43.508;4.980;2022-07-29T11:00:40;33.10;91.30
10384;DHT22;5238;43.508;4.980;2022-07-29T11:03:09;33.00;91.30
10384;DHT22;5238;43.508;4.980;2022-07-29T11:05:57;32.80;91.30
10384;DHT22;5238;43.508;4.980;2022-07-29T11:08:24;32.80;91.30
10384;DHT22;5238;43.508;4.980;2022-07-29T11:11:30;32.90;91.30
10384;DHT22;5238;43.508;4.980;2022-07-29T11:13:50;32.90;91.30
10384;DHT22;5238;43.508;4.980;2022-07-29T11:16:21;32.80;91.30
10384;DHT22;5238;43.508;4.980;2022-07-29T11:19:21;32.60;91.30
10384;DHT22;5238;43.508;4.980;2022-07-29T11:21:50;32.40;91.30
10384;DHT22;5238;43.508;4.980;2022-07-29T11:24:20;32.10;91.30
10384;DHT22;5238;43.508;4.980;2022-07-29T11:27:07;31.80;91.30
10384;DHT22;5238;43.508;4.980;2022-07-29T11:29:37;31.60;91.30
10384;DHT22;5238;43.508;4.980;2022-07-29T11:32:10;31.30;91.30
10384;DHT22;5238;43.508;4.980;2022-07-29T11:34:47;30.90;91.30
10384;DHT22;5238;43.508;4.980;2022-07-29T11:37:32;30.60;91.30
10384;DHT22;5238;43.508;4.980;2022-07-29T11:40:24;30.30;91.30
10384;DHT22;5238;43.508;4.980;2022-07-29T11:42:58;30.10;91.30
10384;DHT22;5238;43.508;4.980;2022-07-29T11:46:03;29.90;91.30
10384;DHT22;5238;43.508;4.980;2022-07-29T11:48:33;30.00;91.30
10384;DHT22;5238;43.508;4.980;2022-07-29T11:51:11;30.00;91.30
10384;DHT22;5238;43.508;4.980;2022-07-29T11:53:39;30.00;91.30
10384;DHT22;5238;43.508;4.980;2022-07-29T11:56:09;30.10;91.30
10384;DHT22;5238;43.508;4.980;2022-07-29T11:58:40;30.10;91.30
10384;DHT22;5238;43.508;4.980;2022-07-29T12:01:13;30.20;91.30
10384;DHT22;5238;43.508;4.980;2022-07-29T12:03:47;30.20;91.30
10384;DHT22;5238;43.508;4.980;2022-07-29T12:06:16;30.20;91.30
10384;DHT22;5238;43.508;4.980;2022-07-29T12:08:43;30.30;91.30
10384;DHT22;5238;43.508;4.980;2022-07-29T12:11:17;30.30;91.30
10384;DHT22;5238;43.508;4.980;2022-07-29T12:13:46;30.50;91.30
10384;DHT22;5238;43.508;4.980;2022-07-29T12:16:22;30.60;91.30
10384;DHT22;5238;43.508;4.980;2022-07-29T12:19:00;30.60;91.30
10384;DHT22;5238;43.508;4.980;2022-07-29T12:21:47;30.90;91.30
10384;DHT22;5238;43.508;4.980;2022-07-29T12:24:20;31.00;91.30
10384;DHT22;5238;43.508;4.980;2022-07-29T12:26:51;31.20;91.30
10384;DHT22;5238;43.508;4.980;2022-07-29T12:29:42;31.30;91.30
10384;DHT22;5238;43.508;4.980;2022-07-29T12:32:09;31.40;91.30
10384;DHT22;5238;43.508;4.980;2022-07-29T12:34:38;31.50;91.30
10384;DHT22;5238;43.508;4.980;2022-07-29T12:37:06;31.70;91.30
10384;DHT22;5238;43.508;4.980;2022-07-29T12:39:45;31.70;91.30
10384;DHT22;5238;43.508;4.980;2022-07-29T12:42:12;31.70;91.30
10384;DHT22;5238;43.508;4.980;2022-07-29T12:44:51;31.70;91.30
10384;DHT22;5238;43.508;4.980;2022-07-29T12:47:18;31.90;91.30
10384;DHT22;5238;43.508;4.980;2022-07-29T12:49:50;32.10;91.30
10384;DHT22;5238;43.508;4.980;2022-07-29T12:52:26;32.20;91.30
10384;DHT22;5238;43.508;4.980;2022-07-29T12:54:54;32.20;91.30
10384;DHT22;5238;43.508;4.980;2022-07-29T12:57:22;32.20;91.30
10384;DHT22;5238;43.508;4.980;2022-07-29T13:03:58;32.10;91.30
10384;DHT22;5238;43.508;4.980;2022-07-29T13:06:48;32.00;91.30
10384;DHT22;5238;43.508;4.980;2022-07-29T13:17:11;32.20;91.30
10384;DHT22;5238;43.508;4.980;2022-07-29T13:29:50;32.50;91.30
10384;DHT22;5238;43.508;4.980;2022-07-29T13:39:02;32.90;91.30
10384;DHT22;5238;43.508;4.980;2022-07-29T13:41:53;33.10;91.30
10384;DHT22;5238;43.508;4.980;2022-07-29T13:44:40;33.10;91.30
10384;DHT22;5238;43.508;4.980;2022-07-29T13:47:13;33.10;91.30
10384;DHT22;5238;43.508;4.980;2022-07-29T13:50:06;33.10;90.50
10384;DHT22;5238;43.508;4.980;2022-07-29T13:52:47;33.00;91.30
10384;DHT22;5238;43.508;4.980;2022-07-29T13:55:29;33.00;90.00
10384;DHT22;5238;43.508;4.980;2022-07-29T13:58:05;33.00;90.50
10384;DHT22;5238;43.508;4.980;2022-07-29T14:03:55;33.00;90.80
10384;DHT22;5238;43.508;4.980;2022-07-29T14:06:22;33.00;91.30
10384;DHT22;5238;43.508;4.980;2022-07-29T14:08:49;33.10;91.30
10384;DHT22;5238;43.508;4.980;2022-07-29T14:11:18;33.10;91.00
10384;DHT22;5238;43.508;4.980;2022-07-29T14:13:46;33.20;91.10
10384;DHT22;5238;43.508;4.980;2022-07-29T14:16:13;33.20;91.30
10384;DHT22;5238;43.508;4.980;2022-07-29T14:18:41;33.20;91.10
10384;DHT22;5238;43.508;4.980;2022-07-29T14:21:08;33.20;91.30
10384;DHT22;5238;43.508;4.980;2022-07-29T14:23:36;33.20;91.30
10384;DHT22;5238;43.508;4.980;2022-07-29T14:26:03;33.20;91.30
10384;DHT22;5238;43.508;4.980;2022-07-29T14:28:32;33.30;91.30
10384;DHT22;5238;43.508;4.980;2022-07-29T14:31:00;33.30;91.30
10384;DHT22;5238;43.508;4.980;2022-07-29T14:33:31;33.30;91.30
10384;DHT22;5238;43.508;4.980;2022-07-29T14:35:57;33.30;90.30
10384;DHT22;5238;43.508;4.980;2022-07-29T14:38:24;33.30;90.30
10384;DHT22;5238;43.508;4.980;2022-07-29T14:40:54;33.30;90.90
10384;DHT22;5238;43.508;4.980;2022-07-29T14:43:21;33.30;91.30
10384;DHT22;5238;43.508;4.980;2022-07-29T14:45:49;33.30;89.90
10384;DHT22;5238;43.508;4.980;2022-07-29T14:51:39;33.20;90.50
10384;DHT22;5238;43.508;4.980;2022-07-29T14:54:06;33.10;90.50
10384;DHT22;5238;43.508;4.980;2022-07-29T14:56:35;33.10;91.00
10384;DHT22;5238;43.508;4.980;2022-07-29T14:59:02;33.10;89.70
10384;DHT22;5238;43.508;4.980;2022-07-29T15:01:31;33.10;90.30
10384;DHT22;5238;43.508;4.980;2022-07-29T15:03:58;33.10;91.00
10384;DHT22;5238;43.508;4.980;2022-07-29T15:06:25;33.00;89.90
10384;DHT22;5238;43.508;4.980;2022-07-29T15:08:52;33.00;91.10
10384;DHT22;5238;43.508;4.980;2022-07-29T15:11:19;33.10;91.30
10384;DHT22;5238;43.508;4.980;2022-07-29T15:13:46;33.10;90.50
10384;DHT22;5238;43.508;4.980;2022-07-29T15:16:13;33.10;91.30
10384;DHT22;5238;43.508;4.980;2022-07-29T15:18:42;33.10;91.00
10384;DHT22;5238;43.508;4.980;2022-07-29T15:21:16;33.10;91.30
10384;DHT22;5238;43.508;4.980;2022-07-29T15:23:43;33.10;91.10
10384;DHT22;5238;43.508;4.980;2022-07-29T15:26:10;33.10;91.30
10384;DHT22;5238;43.508;4.980;2022-07-29T15:28:42;33.10;91.30
10384;DHT22;5238;43.508;4.980;2022-07-29T15:31:09;33.10;90.80
10384;DHT22;5238;43.508;4.980;2022-07-29T15:33:36;33.00;90.90
10384;DHT22;5238;43.508;4.980;2022-07-29T15:36:05;33.10;90.80
10384;DHT22;5238;43.508;4.980;2022-07-29T15:38:37;33.10;91.30
10384;DHT22;5238;43.508;4.980;2022-07-29T15:41:05;33.10;90.80
10384;DHT22;5238;43.508;4.980;2022-07-29T15:43:33;33.10;90.70
10384;DHT22;5238;43.508;4.980;2022-07-29T15:46:01;33.20;90.80
10384;DHT22;5238;43.508;4.980;2022-07-29T15:48:46;33.20;90.90
10384;DHT22;5238;43.508;4.980;2022-07-29T15:51:14;33.20;90.60
10384;DHT22;5238;43.508;4.980;2022-07-29T15:53:44;33.20;89.90
10384;DHT22;5238;43.508;4.980;2022-07-29T15:56:25;33.10;89.70
10384;DHT22;5238;43.508;4.980;2022-07-29T15:58:54;33.10;89.60
10384;DHT22;5238;43.508;4.980;2022-07-29T16:01:21;33.10;89.40
10384;DHT22;5238;43.508;4.980;2022-07-29T16:03:49;33.10;90.50
10384;DHT22;5238;43.508;4.980;2022-07-29T16:06:18;33.10;90.90
10384;DHT22;5238;43.508;4.980;2022-07-29T16:08:45;33.10;90.70
10384;DHT22;5238;43.508;4.980;2022-07-29T16:11:12;33.10;90.90
10384;DHT22;5238;43.508;4.980;2022-07-29T16:13:39;33.10;91.30
10384;DHT22;5238;43.508;4.980;2022-07-29T16:16:06;33.00;91.20
10384;DHT22;5238;43.508;4.980;2022-07-29T16:18:37;33.10;91.30
10384;DHT22;5238;43.508;4.980;2022-07-29T16:21:04;33.10;91.30
10384;DHT22;5238;43.508;4.980;2022-07-29T16:23:32;33.10;91.30
10384;DHT22;5238;43.508;4.980;2022-07-29T16:25:59;33.10;91.30
10384;DHT22;5238;43.508;4.980;2022-07-29T16:28:26;33.00;91.30
10384;DHT22;5238;43.508;4.980;2022-07-29T16:30:57;33.00;91.30
10384;DHT22;5238;43.508;4.980;2022-07-29T16:33:26;33.00;91.30
10384;DHT22;5238;43.508;4.980;2022-07-29T16:35:53;33.00;91.30
10384;DHT22;5238;43.508;4.980;2022-07-29T16:38:21;32.90;91.30
10384;DHT22;5238;43.508;4.980;2022-07-29T16:40:50;32.90;91.30
10384;DHT22;5238;43.508;4.980;2022-07-29T16:43:17;32.90;91.30
10384;DHT22;5238;43.508;4.980;2022-07-29T16:45:44;32.80;91.30
10384;DHT22;5238;43.508;4.980;2022-07-29T16:48:12;32.80;91.30
10384;DHT22;5238;43.508;4.980;2022-07-29T16:50:39;32.80;91.30
10384;DHT22;5238;43.508;4.980;2022-07-29T16:53:12;32.80;91.30
10384;DHT22;5238;43.508;4.980;2022-07-29T16:55:40;32.80;91.30
10384;DHT22;5238;43.508;4.980;2022-07-29T16:58:12;32.70;91.30
10384;DHT22;5238;43.508;4.980;2022-07-29T17:00:43;32.70;91.30